createdAt,value
2023-04-17T00:00:13.020Z,17.25
2023-04-17T00:02:41.362Z,16.63
2023-04-17T00:05:10.580Z,16.73
2023-04-17T00:07:39.354Z,17.60
2023-04-17T00:10:09.525Z,22.52
2023-04-17T00:12:39.426Z,13.32
2023-04-17T00:15:08.722Z,17.27
2023-04-17T00:17:36.894Z,19.48
2023-04-17T00:20:09.994Z,14.85
2023-04-17T00:22:38.451Z,16.45
2023-04-17T00:25:07.416Z,15.85
2023-04-17T00:27:35.645Z,19.17
2023-04-17T00:30:05.987Z,15.73
2023-04-17T00:32:34.151Z,23.98
2023-04-17T00:35:02.426Z,20.75
2023-04-17T00:37:30.555Z,13.52
2023-04-17T00:39:58.755Z,22.02
2023-04-17T00:42:27.045Z,19.17
2023-04-17T00:44:55.214Z,19.63
2023-04-17T00:47:26.483Z,14.35
2023-04-17T00:49:54.731Z,15.88
2023-04-17T00:52:30.350Z,18.08
2023-04-17T00:55:00.069Z,17.05
2023-04-17T00:57:28.653Z,15.13
2023-04-17T00:59:58.334Z,16.75
2023-04-17T01:02:28.423Z,13.77
2023-04-17T01:04:56.912Z,12.45
2023-04-17T01:07:25.538Z,19.05
2023-04-17T01:09:53.790Z,20.05
2023-04-17T01:12:23.650Z,21.45
2023-04-17T01:14:52.144Z,17.52
2023-04-17T01:17:21.789Z,17.48
2023-04-17T01:19:51.778Z,18.98
2023-04-17T01:22:21.086Z,16.15
2023-04-17T01:24:50.941Z,15.63
2023-04-17T01:27:19.100Z,19.85
2023-04-17T01:29:47.959Z,13.13
2023-04-17T01:32:16.228Z,24.30
2023-04-17T01:34:44.663Z,20.33
2023-04-17T01:37:12.887Z,22.90
2023-04-17T01:39:41.073Z,20.63
2023-04-17T01:42:10.776Z,22.95
2023-04-17T01:44:39.129Z,14.30
2023-04-17T01:47:07.261Z,18.70
2023-04-17T01:49:35.502Z,17.98
2023-04-17T01:52:03.631Z,21.02
2023-04-17T01:54:31.771Z,22.42
2023-04-17T01:57:00.196Z,13.95
2023-04-17T01:59:29.721Z,20.58
2023-04-17T02:01:58.008Z,23.70
2023-04-17T02:04:26.381Z,15.65
2023-04-17T02:06:54.982Z,21.77
2023-04-17T02:09:23.126Z,17.45
2023-04-17T02:11:51.557Z,27.02
2023-04-17T02:14:19.955Z,26.17
2023-04-17T02:16:50.237Z,25.42
2023-04-17T02:19:18.423Z,22.80
2023-04-17T02:21:46.545Z,22.58
2023-04-17T02:24:14.717Z,22.25
2023-04-17T02:26:42.839Z,23.10
2023-04-17T02:29:11.407Z,23.48
2023-04-17T02:31:42.916Z,18.85
2023-04-17T02:34:12.742Z,16.58
2023-04-17T02:36:41.462Z,27.38
2023-04-17T02:39:09.621Z,27.17
2023-04-17T02:41:37.771Z,23.75
2023-04-17T02:44:06.090Z,27.60
2023-04-17T02:46:34.376Z,21.33
2023-04-17T02:49:02.607Z,14.48
2023-04-17T02:51:32.125Z,28.05
2023-04-17T02:54:00.305Z,30.58
2023-04-17T02:56:28.698Z,30.35
2023-04-17T02:58:57.212Z,23.08
2023-04-17T03:01:26.410Z,21.98
2023-04-17T03:03:54.978Z,20.15
2023-04-17T03:06:24.101Z,18.05
2023-04-17T03:08:53.815Z,26.65
2023-04-17T03:11:22.010Z,23.00
2023-04-17T03:13:50.289Z,27.73
2023-04-17T03:16:18.708Z,28.98
2023-04-17T03:18:47.086Z,25.98
2023-04-17T03:21:15.186Z,22.60
2023-04-17T03:23:43.843Z,27.73
2023-04-17T03:26:13.446Z,27.58
2023-04-17T03:28:41.890Z,25.35
2023-04-17T03:31:10.008Z,19.92
2023-04-17T03:33:38.824Z,18.38
2023-04-17T03:36:07.508Z,23.83
2023-04-17T03:38:36.987Z,23.77
2023-04-17T03:41:05.242Z,21.58
2023-04-17T03:43:34.718Z,26.42
2023-04-17T03:46:02.941Z,26.02
2023-04-17T03:48:31.408Z,27.17
2023-04-17T03:50:59.579Z,26.60
2023-04-17T03:53:27.701Z,15.15
2023-04-17T03:55:55.922Z,19.80
2023-04-17T03:58:24.095Z,27.50
2023-04-17T04:00:55.588Z,28.05
2023-04-17T04:03:23.886Z,22.38
2023-04-17T04:05:52.180Z,23.27
2023-04-17T04:08:20.450Z,21.98
2023-04-17T04:10:48.792Z,20.75
2023-04-17T04:13:17.007Z,21.92
2023-04-17T04:15:45.228Z,13.93
2023-04-17T04:18:14.743Z,21.42
2023-04-17T04:20:42.906Z,24.63
2023-04-17T04:23:11.342Z,20.73
2023-04-17T04:25:41.769Z,24.35
2023-04-17T04:28:10.604Z,23.88
2023-04-17T04:30:39.703Z,18.30
2023-04-17T04:33:08.450Z,21.42
2023-04-17T04:35:38.569Z,16.27
2023-04-17T04:38:06.862Z,24.58
2023-04-17T04:40:38.172Z,15.80
2023-04-17T04:43:06.833Z,17.63
2023-04-17T04:45:35.016Z,24.08
2023-04-17T04:48:03.441Z,24.20
2023-04-17T04:50:32.027Z,24.48
2023-04-17T04:53:01.600Z,28.77
2023-04-17T04:55:30.764Z,18.38
2023-04-17T04:57:58.972Z,21.25
2023-04-17T05:00:27.172Z,18.98
2023-04-17T05:02:55.678Z,17.63
2023-04-17T05:05:25.424Z,22.55
2023-04-17T05:07:53.625Z,23.13
2023-04-17T05:10:23.292Z,24.90
2023-04-17T05:12:51.426Z,18.85
2023-04-17T05:15:19.710Z,21.38
2023-04-17T05:17:48.145Z,25.98
2023-04-17T05:20:16.373Z,23.98
2023-04-17T05:22:44.571Z,17.15
2023-04-17T05:25:12.693Z,23.98
2023-04-17T05:27:42.532Z,14.75
2023-04-17T05:30:11.677Z,16.83
2023-04-17T05:32:39.866Z,17.65
2023-04-17T05:35:08.543Z,17.95
2023-04-17T05:37:36.642Z,16.45
2023-04-17T05:40:07.207Z,16.83
2023-04-17T05:42:35.479Z,16.58
2023-04-17T05:45:05.769Z,18.98
2023-04-17T05:47:36.808Z,17.42
2023-04-17T05:50:05.661Z,12.65
2023-04-17T05:52:33.906Z,13.93
2023-04-17T05:55:02.094Z,16.30
2023-04-17T05:57:30.464Z,22.40
2023-04-17T05:59:58.580Z,19.27
2023-04-17T06:02:28.309Z,14.45
2023-04-17T06:04:58.482Z,24.48
2023-04-17T06:07:27.277Z,18.77
2023-04-17T06:09:55.608Z,20.05
2023-04-17T06:12:23.803Z,18.52
2023-04-17T06:14:52.055Z,16.85
2023-04-17T06:17:20.375Z,16.73
2023-04-17T06:19:49.974Z,19.02
2023-04-17T06:22:18.145Z,20.27
2023-04-17T06:24:46.601Z,25.48
2023-04-17T06:27:14.762Z,25.38
2023-04-17T06:29:42.967Z,18.98
2023-04-17T06:32:11.157Z,21.13
2023-04-17T06:34:48.928Z,15.95
2023-04-17T06:37:27.936Z,17.75
2023-04-17T06:39:56.066Z,15.80
2023-04-17T06:42:24.927Z,23.52
2023-04-17T06:44:54.525Z,20.63
2023-04-17T06:47:22.730Z,14.85
2023-04-17T06:49:51.086Z,24.05
2023-04-17T06:52:20.248Z,22.25
2023-04-17T06:54:49.795Z,21.80
2023-04-17T06:57:17.955Z,17.38
2023-04-17T06:59:46.188Z,19.50
2023-04-17T07:02:14.626Z,22.48
2023-04-17T07:04:43.039Z,22.35
2023-04-17T07:07:12.628Z,21.83
2023-04-17T07:09:41.949Z,19.45
2023-04-17T07:12:11.458Z,21.15
2023-04-17T07:14:40.697Z,21.13
2023-04-17T07:17:08.974Z,24.42
2023-04-17T07:19:37.956Z,25.10
2023-04-17T07:22:06.640Z,22.58
2023-04-17T07:24:35.165Z,19.65
2023-04-17T07:27:03.938Z,14.40
2023-04-17T07:29:33.996Z,22.17
2023-04-17T07:32:02.183Z,18.23
2023-04-17T07:34:31.343Z,20.33
2023-04-17T07:36:59.533Z,20.30
2023-04-17T07:39:31.586Z,19.42
2023-04-17T07:42:00.260Z,19.20
2023-04-17T07:44:28.692Z,22.23
2023-04-17T07:46:58.577Z,16.15
2023-04-17T07:49:27.056Z,13.32
2023-04-17T07:51:56.173Z,15.65
2023-04-17T07:54:24.782Z,15.80
2023-04-17T07:56:53.282Z,20.05
2023-04-17T07:59:21.688Z,20.27
2023-04-17T08:01:50.539Z,17.75
2023-04-17T08:04:21.244Z,25.48
2023-04-17T08:06:50.611Z,16.95
2023-04-17T08:09:19.070Z,22.20
2023-04-17T08:11:56.310Z,25.77
2023-04-17T08:14:25.956Z,18.65
2023-04-17T08:16:54.401Z,25.23
2023-04-17T08:19:24.252Z,27.52
2023-04-17T08:21:52.770Z,26.48
2023-04-17T08:24:21.168Z,16.20
2023-04-17T08:26:49.661Z,18.05
2023-04-17T08:29:18.117Z,25.08
2023-04-17T08:31:46.513Z,25.85
2023-04-17T08:34:15.742Z,23.75
2023-04-17T08:36:46.541Z,21.65
2023-04-17T08:39:16.528Z,16.63
2023-04-17T08:41:47.371Z,20.05
2023-04-17T08:44:16.935Z,19.33
2023-04-17T08:46:45.631Z,20.63
2023-04-17T08:49:14.367Z,20.80
2023-04-17T08:51:43.467Z,17.45
2023-04-17T08:54:13.311Z,19.63
2023-04-17T08:56:41.709Z,28.35
2023-04-17T08:59:10.294Z,20.27
2023-04-17T09:01:38.900Z,21.65
2023-04-17T09:04:07.708Z,19.10
2023-04-17T09:06:52.902Z,20.55
2023-04-17T09:09:22.705Z,22.05
2023-04-17T09:12:06.127Z,22.42
2023-04-17T09:14:34.617Z,22.25
2023-04-17T09:17:03.065Z,18.73
2023-04-17T09:19:33.930Z,27.65
2023-04-17T09:22:18.360Z,18.98
2023-04-17T09:24:48.493Z,23.13
2023-04-17T09:27:23.436Z,20.17
2023-04-17T09:29:58.390Z,23.65
2023-04-17T09:32:26.992Z,21.05
2023-04-17T09:34:57.001Z,21.55
2023-04-17T09:37:25.557Z,19.52
2023-04-17T09:39:59.088Z,23.30
2023-04-17T09:42:27.980Z,17.35
2023-04-17T09:44:57.864Z,14.35
2023-04-17T09:47:26.247Z,21.45
2023-04-17T09:49:55.884Z,15.93
2023-04-17T09:52:25.556Z,16.95
2023-04-17T09:54:54.231Z,25.05
2023-04-17T09:57:24.072Z,23.30
2023-04-17T09:59:52.821Z,22.67
2023-04-17T10:02:22.692Z,26.73
2023-04-17T10:04:51.376Z,21.73
2023-04-17T10:07:19.785Z,18.23
2023-04-17T10:09:48.813Z,13.48
2023-04-17T10:12:18.628Z,23.65
2023-04-17T10:14:49.965Z,20.55
2023-04-17T10:17:24.981Z,20.35
2023-04-17T10:19:53.918Z,23.50
2023-04-17T10:22:32.171Z,20.17
2023-04-17T10:25:20.188Z,20.33
2023-04-17T10:27:51.140Z,23.33
2023-04-17T10:30:22.643Z,22.85
2023-04-17T10:33:08.403Z,19.35
2023-04-17T10:35:38.231Z,19.00
2023-04-17T10:38:07.773Z,16.52
2023-04-17T10:40:36.857Z,22.08
2023-04-17T10:43:06.301Z,26.73
2023-04-17T10:45:49.704Z,18.70
2023-04-17T10:48:23.412Z,17.63
2023-04-17T10:50:51.851Z,20.20
2023-04-17T10:53:44.215Z,22.38
2023-04-17T10:56:13.238Z,18.42
2023-04-17T10:58:57.195Z,23.88
2023-04-17T11:01:27.529Z,18.83
2023-04-17T11:03:59.644Z,21.00
2023-04-17T11:06:29.408Z,24.20
2023-04-17T11:08:58.054Z,19.05
2023-04-17T11:11:40.411Z,22.00
2023-04-17T11:14:14.688Z,22.85
2023-04-17T11:16:44.337Z,21.15
2023-04-17T11:19:15.177Z,23.60
2023-04-17T11:21:44.133Z,19.95
2023-04-17T11:24:12.954Z,17.05
2023-04-17T11:26:45.126Z,15.40
2023-04-17T11:29:16.938Z,21.23
2023-04-17T11:31:46.755Z,15.45
2023-04-17T11:34:18.516Z,18.60
2023-04-17T11:36:50.823Z,22.30
2023-04-17T11:39:19.863Z,22.70
2023-04-17T11:41:48.533Z,19.90
2023-04-17T11:44:18.786Z,18.77
2023-04-17T11:46:50.854Z,20.75
2023-04-17T11:49:25.714Z,15.93
2023-04-17T11:51:57.732Z,18.92
2023-04-17T11:54:29.382Z,16.63
2023-04-17T11:57:01.739Z,18.80
2023-04-17T11:59:33.908Z,14.95
2023-04-17T12:02:03.406Z,16.83
2023-04-17T12:04:34.925Z,19.27
2023-04-17T12:07:03.872Z,19.35
2023-04-17T12:09:32.753Z,17.45
2023-04-17T12:12:01.358Z,18.83
2023-04-17T12:14:29.866Z,17.05
2023-04-17T12:16:58.271Z,14.90
2023-04-17T12:19:27.459Z,19.38
2023-04-17T12:21:59.262Z,19.45
2023-04-17T12:24:27.829Z,19.80
2023-04-17T12:26:57.158Z,18.45
2023-04-17T12:29:40.511Z,16.42
2023-04-17T12:32:12.839Z,19.30
2023-04-17T12:34:41.596Z,17.55
2023-04-17T12:37:11.613Z,16.48
2023-04-17T12:39:40.115Z,18.88
2023-04-17T12:42:08.561Z,17.45
2023-04-17T12:44:36.969Z,18.02
2023-04-17T12:47:05.527Z,18.00
2023-04-17T12:49:34.016Z,21.10
2023-04-17T12:52:03.897Z,21.45
2023-04-17T12:54:34.067Z,16.95
2023-04-17T12:57:03.354Z,19.83
2023-04-17T12:59:31.858Z,15.57
2023-04-17T13:02:00.515Z,18.25
2023-04-17T13:04:29.536Z,20.08
2023-04-17T13:06:58.073Z,18.30
2023-04-17T13:09:26.626Z,14.65
2023-04-17T13:11:57.649Z,18.05
2023-04-17T13:14:26.087Z,16.90
2023-04-17T13:16:54.556Z,14.75
2023-04-17T13:19:23.060Z,19.58
2023-04-17T13:21:53.152Z,21.13
2023-04-17T13:24:21.640Z,18.83
2023-04-17T13:26:50.125Z,17.40
2023-04-17T13:29:20.071Z,20.90
2023-04-17T13:31:49.597Z,17.40
2023-04-17T13:34:18.094Z,17.67
2023-04-17T13:36:46.625Z,17.13
2023-04-17T13:39:18.017Z,17.45
2023-04-17T13:41:46.827Z,17.05
2023-04-17T13:44:16.348Z,17.10
2023-04-17T13:46:46.380Z,17.50
2023-04-17T13:49:15.216Z,19.13
2023-04-17T13:51:43.749Z,15.48
2023-04-17T13:54:12.187Z,18.17
2023-04-17T13:56:40.678Z,16.60
2023-04-17T13:59:09.090Z,17.77
2023-04-17T14:01:37.611Z,15.93
2023-04-17T14:04:08.031Z,17.60
2023-04-17T14:06:38.715Z,17.85
2023-04-17T14:09:07.516Z,15.13
2023-04-17T14:11:35.675Z,17.83
2023-04-17T14:14:04.194Z,16.20
2023-04-17T14:16:32.600Z,19.55
2023-04-17T14:19:13.265Z,17.20
2023-04-17T14:21:44.332Z,17.50
2023-04-17T14:24:12.794Z,18.50
2023-04-17T14:26:41.359Z,18.60
2023-04-17T14:29:10.886Z,15.98
2023-04-17T14:31:39.616Z,14.52
2023-04-17T14:34:08.594Z,15.43
2023-04-17T14:36:37.055Z,17.17
2023-04-17T14:39:07.124Z,15.75
2023-04-17T14:41:35.581Z,16.45
2023-04-17T14:44:04.040Z,17.30
2023-04-17T14:46:32.639Z,15.45
2023-04-17T14:49:01.308Z,13.27
2023-04-17T14:51:30.674Z,17.02
2023-04-17T14:53:59.359Z,14.65
2023-04-17T14:56:29.208Z,15.88
2023-04-17T14:58:57.678Z,15.30
2023-04-17T15:01:26.203Z,14.90
2023-04-17T15:03:54.944Z,14.77
2023-04-17T15:06:23.614Z,14.85
2023-04-17T15:08:52.033Z,11.93
2023-04-17T15:11:21.046Z,14.20
2023-04-17T15:13:50.916Z,17.02
2023-04-17T15:16:19.587Z,12.95
2023-04-17T15:18:48.104Z,18.35
2023-04-17T15:21:17.453Z,14.82
2023-04-17T15:23:46.074Z,15.15
2023-04-17T15:26:14.726Z,16.02
2023-04-17T15:28:43.121Z,15.93
2023-04-17T15:31:12.898Z,16.83
2023-04-17T15:33:41.370Z,15.73
2023-04-17T15:36:10.062Z,14.43
2023-04-17T15:38:38.472Z,15.15
2023-04-17T15:41:08.255Z,15.80
2023-04-17T15:43:37.813Z,15.40
2023-04-17T15:46:06.523Z,15.48
2023-04-17T15:48:36.339Z,13.95
2023-04-17T15:51:04.910Z,14.07
2023-04-17T15:53:33.788Z,14.00
2023-04-17T15:56:02.304Z,14.00
2023-04-17T15:58:30.929Z,15.23
2023-04-17T16:00:59.445Z,13.90
2023-04-17T16:03:28.027Z,14.25
2023-04-17T16:05:58.080Z,15.02
2023-04-17T16:08:26.960Z,11.52
2023-04-17T16:10:55.389Z,15.05
2023-04-17T16:13:23.850Z,11.98
2023-04-17T16:15:52.310Z,13.98
2023-04-17T16:18:20.866Z,12.20
2023-04-17T16:20:49.330Z,13.00
2023-04-17T16:23:19.224Z,10.95
2023-04-17T16:25:47.649Z,13.73
2023-04-17T16:28:16.209Z,11.93
2023-04-17T16:30:44.656Z,10.93
2023-04-17T16:33:13.081Z,14.02
2023-04-17T16:35:41.508Z,10.32
2023-04-17T16:38:09.928Z,11.50
2023-04-17T16:40:39.705Z,12.68
2023-04-17T16:43:09.069Z,12.48
2023-04-17T16:45:38.166Z,11.95
2023-04-17T16:48:09.019Z,9.55
2023-04-17T16:50:37.663Z,13.93
2023-04-17T16:53:06.078Z,12.60
2023-04-17T16:55:34.518Z,12.98
2023-04-17T16:58:05.032Z,11.45
2023-04-17T17:00:33.575Z,11.55
2023-04-17T17:03:02.157Z,12.05
2023-04-17T17:05:30.738Z,11.95
2023-04-17T17:07:59.087Z,11.35
2023-04-17T17:10:27.526Z,12.30
2023-04-17T17:12:56.006Z,9.55
2023-04-17T17:15:25.942Z,10.23
2023-04-17T17:17:54.430Z,11.45
2023-04-17T17:20:22.843Z,12.13
2023-04-17T17:22:51.249Z,11.55
2023-04-17T17:25:19.732Z,10.48
2023-04-17T17:27:48.165Z,10.35
2023-04-17T17:30:16.728Z,12.02
2023-04-17T17:32:46.569Z,12.98
2023-04-17T17:35:15.227Z,10.65
2023-04-17T17:37:43.654Z,11.68
2023-04-17T17:40:12.395Z,13.82
2023-04-17T17:42:40.778Z,11.15
2023-04-17T17:45:09.580Z,13.27
2023-04-17T17:47:38.082Z,11.85
2023-04-17T17:50:08.749Z,12.65
2023-04-17T17:52:37.206Z,12.70
2023-04-17T17:55:05.822Z,10.75
2023-04-17T17:57:47.868Z,9.13
2023-04-17T18:00:18.079Z,10.93
2023-04-17T18:02:46.777Z,12.85
2023-04-17T18:05:16.628Z,11.00
2023-04-17T18:07:45.098Z,12.20
2023-04-17T18:10:13.548Z,9.60
2023-04-17T18:12:41.909Z,10.32
2023-04-17T18:15:11.041Z,9.95
2023-04-17T18:17:39.476Z,10.90
2023-04-17T18:20:08.427Z,9.68
2023-04-17T18:22:38.481Z,8.70
2023-04-17T18:25:07.364Z,9.60
2023-04-17T18:27:37.042Z,7.35
2023-04-17T18:30:06.326Z,8.75
2023-04-17T18:32:34.933Z,9.05
2023-04-17T18:35:04.238Z,9.65
2023-04-17T18:37:32.692Z,7.72
2023-04-17T18:40:02.480Z,9.90
2023-04-17T18:42:30.943Z,7.65
2023-04-17T18:44:59.469Z,8.32
2023-04-17T18:47:28.114Z,9.15
2023-04-17T18:49:56.668Z,8.57
2023-04-17T18:52:25.127Z,9.73
2023-04-17T18:54:53.620Z,8.05
2023-04-17T18:57:23.526Z,8.57
2023-04-17T18:59:51.944Z,9.70
2023-04-17T19:02:20.480Z,8.80
2023-04-17T19:04:48.949Z,8.15
2023-04-17T19:07:17.920Z,9.60
2023-04-17T19:09:46.353Z,10.40
2023-04-17T19:12:14.792Z,10.52
2023-04-17T19:14:44.582Z,9.32
2023-04-17T19:17:13.008Z,8.68
2023-04-17T19:19:41.445Z,7.55
2023-04-17T19:22:09.929Z,7.35
2023-04-17T19:24:38.330Z,8.70
2023-04-17T19:27:06.719Z,8.07
2023-04-17T19:29:35.156Z,8.18
2023-04-17T19:32:05.137Z,10.25
2023-04-17T19:34:33.618Z,10.73
2023-04-17T19:37:02.074Z,9.35
2023-04-17T19:39:30.516Z,6.22
2023-04-17T19:41:58.924Z,7.80
2023-04-17T19:44:28.058Z,9.38
2023-04-17T19:46:56.967Z,9.68
2023-04-17T19:49:26.758Z,8.85
2023-04-17T19:51:55.179Z,10.50
2023-04-17T19:54:23.619Z,10.10
2023-04-17T19:56:52.078Z,9.02
2023-04-17T19:59:20.506Z,8.63
2023-04-17T20:01:49.136Z,10.15
2023-04-17T20:04:17.612Z,12.68
2023-04-17T20:06:47.518Z,11.30
2023-04-17T20:09:16.710Z,11.18
2023-04-17T20:11:45.447Z,10.00
2023-04-17T20:14:14.719Z,10.85
2023-04-17T20:16:45.395Z,9.18
2023-04-17T20:19:14.319Z,9.27
2023-04-17T20:21:44.069Z,9.93
2023-04-17T20:24:15.831Z,10.02
2023-04-17T20:26:47.418Z,12.18
2023-04-17T20:29:15.973Z,11.00
2023-04-17T20:31:44.665Z,11.65
2023-04-17T20:34:13.200Z,10.68
2023-04-17T20:36:41.614Z,9.65
2023-04-17T20:39:11.103Z,10.70
2023-04-17T20:41:41.142Z,13.13
2023-04-17T20:44:10.195Z,10.98
2023-04-17T20:46:38.614Z,10.43
2023-04-17T20:49:07.021Z,9.13
2023-04-17T20:51:35.460Z,9.98
2023-04-17T20:54:03.910Z,12.27
2023-04-17T20:56:32.317Z,14.45
2023-04-17T20:59:02.107Z,13.73
2023-04-17T21:01:30.690Z,11.48
2023-04-17T21:03:59.288Z,12.43
2023-04-17T21:06:27.775Z,13.82
2023-04-17T21:08:57.098Z,12.23
2023-04-17T21:11:25.547Z,17.08
2023-04-17T21:13:53.963Z,16.88
2023-04-17T21:16:23.771Z,15.30
2023-04-17T21:18:52.177Z,14.63
2023-04-17T21:21:20.625Z,16.67
2023-04-17T21:23:49.070Z,14.95
2023-04-17T21:26:18.695Z,15.35
2023-04-17T21:28:47.099Z,15.43
2023-04-17T21:31:15.780Z,17.05
2023-04-17T21:33:45.720Z,14.98
2023-04-17T21:36:15.421Z,15.55
2023-04-17T21:38:43.869Z,13.48
2023-04-17T21:41:12.274Z,14.68
2023-04-17T21:43:40.706Z,14.98
2023-04-17T21:46:11.402Z,14.30
2023-04-17T21:48:40.356Z,14.82
2023-04-17T21:51:10.264Z,12.82
2023-04-17T21:53:38.873Z,9.30
2023-04-17T21:56:07.442Z,12.45
2023-04-17T21:58:35.896Z,14.07
2023-04-17T22:01:04.637Z,13.63
2023-04-17T22:03:33.116Z,14.80
2023-04-17T22:06:01.859Z,16.70
2023-04-17T22:08:31.591Z,17.88
2023-04-17T22:11:00.017Z,18.65
2023-04-17T22:13:28.443Z,12.15
2023-04-17T22:15:58.393Z,17.20
2023-04-17T22:18:27.517Z,15.32
2023-04-17T22:20:55.917Z,17.65
2023-04-17T22:23:24.305Z,16.10
2023-04-17T22:25:54.086Z,14.23
2023-04-17T22:28:22.556Z,17.70
2023-04-17T22:30:52.432Z,12.80
2023-04-17T22:33:20.903Z,10.15
2023-04-17T22:35:50.029Z,15.88
2023-04-17T22:38:20.788Z,15.73
2023-04-17T22:40:49.219Z,15.95
2023-04-17T22:43:19.094Z,16.60
2023-04-17T22:45:47.535Z,17.48
2023-04-17T22:48:16.001Z,17.40
2023-04-17T22:50:45.559Z,15.50
2023-04-17T22:53:13.956Z,15.52
2023-04-17T22:55:42.374Z,17.13
2023-04-17T22:58:10.764Z,14.25
2023-04-17T23:00:40.555Z,18.63
2023-04-17T23:03:09.068Z,15.27
2023-04-17T23:05:37.669Z,17.77
2023-04-17T23:08:06.068Z,16.60
2023-04-17T23:10:34.473Z,14.18
2023-04-17T23:13:02.957Z,12.18
2023-04-17T23:15:31.330Z,12.90
2023-04-17T23:18:01.181Z,17.45
2023-04-17T23:20:29.595Z,15.35
2023-04-17T23:22:57.983Z,13.35
2023-04-17T23:25:26.377Z,11.60
2023-04-17T23:27:54.816Z,17.05
2023-04-17T23:30:23.176Z,16.00
2023-04-17T23:32:53.575Z,19.27
2023-04-17T23:35:23.817Z,16.35
2023-04-17T23:37:52.360Z,8.93
2023-04-17T23:40:20.746Z,11.38
2023-04-17T23:42:49.192Z,11.80
2023-04-17T23:45:17.552Z,18.05
2023-04-17T23:47:46.017Z,15.80
2023-04-17T23:50:14.516Z,14.90
2023-04-17T23:52:44.270Z,11.88
2023-04-17T23:55:12.695Z,18.80
2023-04-17T23:57:41.235Z,15.25
